Time;durP1;ratioP1;P1;durP2;ratioP2;P2;SDS_P1;SDS_P2;PMS_P1;PMS_P2;Temp;Humidity;BMP_temperature;BMP_pressure;BME280_temperature;BME280_humidity;BME280_pressure;Samples;Min_cycle;Max_cycle;Signal;HPM_P1;HPM_P2
2021/06/14 00:00:57;;;;;;;16.48;6.60;;;;;;;8.22;100.00;98709.84;5045029;28;20155;-81
2021/06/14 00:03:24;;;;;;;18.50;6.93;;;;;;;8.23;100.00;98711.47;5043225;28;20052;-80
2021/06/14 00:05:50;;;;;;;16.88;6.95;;;;;;;8.20;100.00;98707.44;5046295;28;20075;-82
2021/06/14 00:08:20;;;;;;;14.63;6.43;;;;;;;8.12;100.00;98698.03;5065293;28;20048;-79
2021/06/14 00:10:48;;;;;;;17.27;7.35;;;;;;;8.04;100.00;98700.44;5047606;28;20524;-80
2021/06/14 00:13:15;;;;;;;15.57;7.07;;;;;;;8.05;100.00;98705.56;5064762;28;20044;-81
2021/06/14 00:15:46;;;;;;;14.40;7.15;;;;;;;7.95;100.00;98694.78;5064018;28;20086;-81
2021/06/14 00:18:14;;;;;;;16.45;7.20;;;;;;;7.91;100.00;98701.00;5046089;28;20072;-80
2021/06/14 00:20:48;;;;;;;20.23;7.63;;;;;;;7.86;100.00;98693.75;5047081;28;20419;-82
2021/06/14 00:23:15;;;;;;;19.40;7.80;;;;;;;7.85;100.00;98685.91;5046132;28;20475;-80
2021/06/14 00:25:41;;;;;;;17.50;7.97;;;;;;;7.76;100.00;98692.94;5021751;28;20100;-80
2021/06/14 00:28:08;;;;;;;17.88;7.22;;;;;;;7.75;100.00;98680.53;5046016;28;20124;-82
2021/06/14 00:30:42;;;;;;;17.73;7.70;;;;;;;7.74;100.00;98692.41;5014385;28;20057;-81
2021/06/14 00:33:10;;;;;;;20.88;7.68;;;;;;;7.78;100.00;98688.06;5013731;28;20489;-82
2021/06/14 00:35:38;;;;;;;13.00;7.22;;;;;;;7.85;100.00;98686.72;5029191;28;20052;-80
2021/06/14 00:38:05;;;;;;;16.20;6.90;;;;;;;7.96;100.00;98691.03;5029134;28;20112;-80
2021/06/14 00:40:32;;;;;;;17.85;6.63;;;;;;;8.04;100.00;98689.66;5029084;28;20041;-82
2021/06/14 00:43:00;;;;;;;18.00;6.10;;;;;;;8.07;100.00;98675.63;5028618;28;20051;-81
2021/06/14 00:45:30;;;;;;;13.70;6.70;;;;;;;8.10;100.00;98675.88;5048200;28;20048;-82
2021/06/14 00:48:02;;;;;;;17.02;6.20;;;;;;;8.13;100.00;98675.34;5034453;28;20120;-81
2021/06/14 00:50:37;;;;;;;12.95;6.38;;;;;;;-95.11;100.00;98684.53;5032718;28;20328;-82
2021/06/14 00:53:06;;;;;;;15.00;6.07;;;;;;;8.07;100.00;98678.34;5033363;28;20071;-81
2021/06/14 00:55:34;;;;;;;13.07;5.97;;;;;;;8.06;100.00;98677.53;5032828;28;20049;-81
2021/06/14 00:58:01;;;;;;;15.85;6.30;;;;;;;8.02;100.00;98681.84;5033267;28;20504;-82
2021/06/14 01:00:29;;;;;;;12.63;6.20;;;;;;;7.88;100.00;98678.09;5032842;28;20052;-82
2021/06/14 01:02:58;;;;;;;12.27;5.97;;;;;;;7.92;100.00;98681.06;5050279;28;20110;-82
2021/06/14 01:05:26;;;;;;;15.27;5.88;;;;;;;7.97;100.00;98681.06;5051228;28;20114;-83
2021/06/14 01:07:53;;;;;;;14.30;5.75;;;;;;;7.96;100.00;98676.72;5051340;28;20041;-82
2021/06/14 01:10:20;;;;;;;16.67;5.78;;;;;;;7.81;100.00;98676.75;5016023;28;20059;-82
2021/06/14 01:13:10;;;;;;;18.98;6.32;;;;;;;7.73;100.00;98669.22;5032346;28;20462;-81
2021/06/14 01:16:04;;;;;;;15.57;5.93;;;;;;;7.69;100.00;98668.16;5016033;28;20373;-81
2021/06/14 01:18:49;;;;;;;13.75;6.30;;;;;;;7.69;100.00;98662.75;5050018;28;20097;-81
2021/06/14 01:21:24;;;;;;;13.60;6.13;;;;;;;7.57;100.00;98660.31;5063078;28;20393;-83
2021/06/14 01:24:20;;;;;;;14.63;6.60;;;;;;;7.59;100.00;98668.94;5054922;28;20049;-82
2021/06/14 01:26:59;;;;;;;12.48;6.55;;;;;;;7.60;100.00;98667.06;5036309;28;20037;-82
2021/06/14 01:29:28;;;;;;;15.25;5.72;;;;;;;7.65;100.00;98658.97;5035814;28;20235;-82
2021/06/14 01:31:57;;;;;;;15.35;6.40;;;;;;;7.76;100.00;98658.72;5033045;28;20048;-81
2021/06/14 01:34:27;;;;;;;14.40;6.32;;;;;;;7.80;100.00;98664.34;5049451;28;20118;-81
2021/06/14 01:36:56;;;;;;;12.73;6.22;;;;;;;7.80;100.00;98654.38;5050865;28;20048;-81
2021/06/14 01:39:26;;;;;;;12.73;5.72;;;;;;;7.82;100.00;98649.50;5051097;28;20408;-81
2021/06/14 01:41:54;;;;;;;12.02;5.57;;;;;;;7.81;100.00;98647.09;5033141;28;20103;-81
2021/06/14 01:44:22;;;;;;;13.18;6.10;;;;;;;7.77;100.00;98646.81;5050471;28;20099;-81
2021/06/14 01:46:50;;;;;;;13.57;5.60;;;;;;;7.77;100.00;98643.34;5050572;28;20044;-80
2021/06/14 01:49:17;;;;;;;11.73;5.97;;;;;;;7.66;100.00;98639.84;5049053;28;20128;-81
2021/06/14 01:51:44;;;;;;;14.38;5.78;;;;;;;7.63;100.00;98642.28;5050082;28;20045;-80
2021/06/14 01:54:11;;;;;;;14.50;5.60;;;;;;;7.56;100.00;98633.66;5031664;28;20114;-80
2021/06/14 01:56:47;;;;;;;13.00;6.20;;;;;;;7.52;100.00;98646.84;5050595;28;20470;-81
2021/06/14 01:59:36;;;;;;;13.35;6.60;;;;;;;7.42;100.00;98644.97;5053185;28;20112;-80
2021/06/14 02:02:05;;;;;;;12.55;6.30;;;;;;;7.33;100.00;98637.72;5055195;28;20136;-81
2021/06/14 02:04:33;;;;;;;11.57;6.20;;;;;;;7.25;100.00;98636.34;5032295;28;20512;-80
2021/06/14 02:07:00;;;;;;;10.80;5.75;;;;;;;7.24;100.00;98636.63;5049410;28;20045;-80
2021/06/14 02:09:31;;;;;;;16.88;7.53;;;;;;;7.27;100.00;98634.22;5031960;28;20421;-81
2021/06/14 02:12:01;;;;;;;17.50;7.10;;;;;;;7.24;100.00;98628.53;5049626;28;20052;-80
2021/06/14 02:14:34;;;;;;;13.00;7.10;;;;;;;7.24;100.00;98633.91;5030553;28;20455;-80
2021/06/14 02:17:05;;;;;;;14.32;7.15;;;;;;;7.23;100.00;98630.41;5049184;28;20045;-80
2021/06/14 02:19:32;;;;;;;13.05;7.07;;;;;;;7.22;100.00;98642.28;5048665;28;20037;-80
2021/06/14 02:22:01;;;;;;;15.90;7.05;;;;;;;7.17;100.00;98631.50;5031533;28;20106;-80
2021/06/14 02:24:27;;;;;;;16.88;7.00;;;;;;;7.15;100.00;98633.63;5055243;28;20060;-80
2021/06/14 02:26:54;;;;;;;15.40;7.65;;;;;;;7.21;100.00;98626.38;5036198;28;20131;-81
2021/06/14 02:29:20;;;;;;;16.50;7.78;;;;;;;7.31;100.00;98629.06;5052565;28;20106;-81
2021/06/14 02:31:47;;;;;;;15.98;7.35;;;;;;;7.20;100.00;98625.56;5050561;28;20255;-81
2021/06/14 02:34:14;;;;;;;14.57;6.60;;;;;;;7.19;100.00;98628.53;5050072;28;20049;-81
2021/06/14 02:36:41;;;;;;;15.85;7.10;;;;;;;7.07;100.00;98634.16;5050022;28;20051;-81
2021/06/14 02:39:11;;;;;;;15.15;7.03;;;;;;;7.06;100.00;98623.69;5050345;28;20099;-81
2021/06/14 02:41:40;;;;;;;14.40;6.85;;;;;;;7.03;100.00;98625.03;5031826;28;20409;-81
2021/06/14 02:44:07;;;;;;;18.05;7.03;;;;;;;7.04;100.00;98620.44;5049627;28;20041;-81
2021/06/14 02:46:43;;;;;;;12.40;6.70;;;;;;;7.02;100.00;98606.47;5049731;28;20110;-81
2021/06/14 02:49:11;;;;;;;18.80;7.57;;;;;;;7.04;100.00;98610.50;5030774;28;20049;-81
2021/06/14 02:51:40;;;;;;;19.52;8.60;;;;;;;6.99;100.00;98602.41;5048359;28;20041;-81
2021/06/14 02:54:18;;;;;;;13.57;7.07;;;;;;;7.04;100.00;98620.44;5013295;28;20040;-81
2021/06/14 02:56:49;;;;;;;15.55;7.45;;;;;;;6.94;100.00;98613.19;5048605;28;20068;-80
2021/06/14 02:59:18;;;;;;;15.77;6.75;;;;;;;6.90;100.00;98614.78;5049348;28;20037;-81
2021/06/14 03:01:47;;;;;;;13.18;6.30;;;;;;;6.88;100.00;98614.25;5020226;28;20068;-81
2021/06/14 03:04:15;;;;;;;15.07;7.10;;;;;;;6.77;100.00;98599.13;5017986;28;20057;-81
2021/06/14 03:06:44;;;;;;;16.83;6.82;;;;;;;6.97;100.00;98617.22;5031565;28;20068;-82
2021/06/14 03:09:11;;;;;;;13.88;7.32;;;;;;;6.92;100.00;98601.84;5048116;28;20037;-79
2021/06/14 03:11:41;;;;;;;22.38;8.52;;;;;;;6.91;100.00;98613.72;5029471;28;20041;-80
2021/06/14 03:14:10;;;;;;;13.35;7.75;;;;;;;6.87;100.00;98610.72;5013090;28;20049;-80
2021/06/14 03:16:37;;;;;;;17.00;7.65;;;;;;;6.78;100.00;98612.34;5049433;28;20045;-79
2021/06/14 03:19:05;;;;;;;16.48;7.07;;;;;;;6.84;100.00;98615.81;5030123;28;20316;-80
2021/06/14 03:21:34;;;;;;;16.33;7.50;;;;;;;6.86;100.00;98611.00;5031131;28;20144;-80
2021/06/14 03:24:01;;;;;;;16.38;8.20;;;;;;;6.89;100.00;98611.25;5051507;28;20049;-80
2021/06/14 03:26:31;;;;;;;18.63;7.95;;;;;;;6.88;100.00;98611.53;5033222;28;20052;-79
2021/06/14 03:28:59;;;;;;;16.67;7.20;;;;;;;6.95;100.00;98608.56;5028867;28;20105;-78
2021/06/14 03:31:29;;;;;;;15.45;7.70;;;;;;;6.99;100.00;98606.97;5013694;28;20163;-79
2021/06/14 03:33:56;;;;;;;15.27;7.55;;;;;;;7.07;100.00;98615.31;5049090;28;20405;-80
2021/06/14 03:36:30;;;;;;;15.40;7.10;;;;;;;7.04;100.00;98615.88;5031275;28;20121;-79
2021/06/14 03:38:58;;;;;;;19.23;7.78;;;;;;;7.09;100.00;98615.88;5031591;28;20409;-79
2021/06/14 03:41:25;;;;;;;17.02;7.47;;;;;;;7.14;100.00;98621.28;5031351;28;20053;-79
2021/06/14 03:43:52;;;;;;;15.63;7.68;;;;;;;7.17;100.00;98625.31;5030922;28;20156;-80
2021/06/14 03:46:19;;;;;;;17.73;8.20;;;;;;;7.19;100.00;98618.56;5048606;28;20049;-80
2021/06/14 03:48:46;;;;;;;18.50;8.05;;;;;;;7.23;100.00;98606.19;5030899;28;20053;-79
2021/06/14 03:51:13;;;;;;;14.60;7.78;;;;;;;7.30;100.00;98612.09;5030377;28;20055;-79
2021/06/14 03:53:40;;;;;;;18.13;8.02;;;;;;;7.40;100.00;98611.31;5029249;28;20052;-80
2021/06/14 04:01:46;;;;;;;14.65;7.32;;;;;;;7.72;100.00;98610.97;2968282;22;20052;-80
2021/06/14 04:06:59;;;;;;;14.80;7.30;;;;;;;7.82;100.00;98603.69;5050535;28;20224;-80
2021/06/14 04:09:25;;;;;;;18.50;7.82;;;;;;;7.90;100.00;98603.13;5050844;28;20128;-80
2021/06/14 04:11:52;;;;;;;12.68;7.50;;;;;;;7.95;100.00;98595.03;5050353;28;20489;-80
2021/06/14 04:14:24;;;;;;;15.45;7.68;;;;;;;8.05;100.00;98603.09;5050885;28;20049;-81
2021/06/14 04:27:24;;;;;;;16.80;7.78;;;;;;;8.53;100.00;98588.09;5037369;28;20103;-82
2021/06/14 04:29:51;;;;;;;19.77;8.38;;;;;;;8.63;100.00;98590.72;5020756;28;20049;-84
2021/06/14 04:32:18;;;;;;;20.13;9.38;;;;;;;8.79;100.00;98596.84;5038275;28;20067;-84
2021/06/14 04:34:44;;;;;;;17.58;8.73;;;;;;;8.87;100.00;98587.34;5038347;28;20051;-85
2021/06/14 04:37:22;;;;;;;17.17;9.00;;;;;;;8.85;100.00;98576.84;5039253;28;20045;-84
2021/06/14 04:40:07;;;;;;;20.50;9.05;;;;;;;8.98;100.00;98586.19;5037300;28;20080;-83
2021/06/14 04:43:19;;;;;;;21.27;10.80;;;;;;;9.08;100.00;98580.72;5021900;28;20076;-84
2021/06/14 04:46:28;;;;;;;20.05;9.95;;;;;;;9.30;100.00;98602.69;5009299;28;20121;-84
2021/06/14 04:49:04;;;;;;;22.50;10.55;;;;;;;9.29;100.00;98584.88;5025406;28;20301;-84
2021/06/14 04:51:37;;;;;;;25.98;10.52;;;;;;;9.55;100.00;98597.06;5002526;28;20477;-84
2021/06/14 04:54:03;;;;;;;22.17;10.02;;;;;;;9.65;100.00;98588.84;5018651;28;20045;-83
2021/06/14 04:56:38;;;;;;;24.25;9.43;;;;;;;9.86;100.00;98598.38;5016669;28;20053;-83
2021/06/14 04:59:20;;;;;;;21.10;9.43;;;;;;;9.89;100.00;98568.06;5016066;28;20493;-83
2021/06/14 05:02:12;;;;;;;23.02;10.30;;;;;;;10.28;100.00;98586.84;5022961;28;20152;-84
2021/06/14 05:04:53;;;;;;;22.03;9.93;;;;;;;10.39;100.00;98576.69;5013582;28;20266;-82
2021/06/14 05:07:22;;;;;;;21.73;10.30;;;;;;;10.59;100.00;98576.44;5016887;28;20293;-79
2021/06/14 05:09:53;;;;;;;25.25;10.57;;;;;;;10.84;100.00;98578.00;5016786;28;20042;-83
2021/06/14 05:12:20;;;;;;;23.73;9.05;;;;;;;11.05;100.00;98577.38;5014915;28;20041;-81
2021/06/14 05:15:25;;;;;;;21.13;9.90;;;;;;;11.31;100.00;98583.19;5016024;28;20045;-84
2021/06/14 05:17:55;;;;;;;;;;;;;;;11.49;100.00;98582.34;4996678;28;20050;-83
2021/06/14 05:20:21;;;;;;;19.67;8.45;;;;;;;11.60;100.00;98582.97;5014550;28;19921;-82
2021/06/14 05:22:54;;;;;;;20.17;7.90;;;;;;;11.85;100.00;98585.25;5015483;28;20041;-83
2021/06/14 05:25:23;;;;;;;19.98;8.43;;;;;;;11.94;100.00;98583.47;4997897;28;20050;-82
2021/06/14 05:27:53;;;;;;;17.40;6.80;;;;;;;12.13;100.00;98588.81;4999024;28;20046;-82
2021/06/14 05:30:24;;;;;;;20.10;7.00;;;;;;;12.30;100.00;98580.88;5014552;28;20045;-81
2021/06/14 05:32:54;;;;;;;17.90;6.55;;;;;;;12.46;100.00;98577.50;5001388;28;20053;-81
2021/06/14 05:35:30;;;;;;;16.30;6.50;;;;;;;12.60;100.00;98572.06;5022043;28;20169;-82
2021/06/14 05:37:57;;;;;;;15.98;6.10;;;;;;;12.75;100.00;98582.59;5004102;28;20145;-81
2021/06/14 05:40:25;;;;;;;12.95;6.00;;;;;;;12.87;100.00;98558.44;5020681;28;20101;-84
2021/06/14 05:43:12;;;;;;;17.65;6.50;;;;;;;13.12;100.00;98567.91;5016329;28;20061;-83
2021/06/14 05:45:47;;;;;;;15.05;6.15;;;;;;;13.44;100.00;98580.47;5021353;28;20505;-84
2021/06/14 05:48:14;;;;;;;12.52;5.25;;;;;;;13.55;100.00;98566.28;5023185;28;20053;-84
2021/06/14 05:50:43;;;;;;;21.63;5.75;;;;;;;13.72;100.00;98560.97;5015294;28;20046;-82
2021/06/14 05:53:13;;;;;;;13.82;5.30;;;;;;;13.79;100.00;98571.38;5020530;28;20053;-83
2021/06/14 05:55:40;;;;;;;14.13;5.25;;;;;;;13.92;100.00;98559.59;5035946;28;20050;-82
2021/06/14 05:58:07;;;;;;;17.30;5.20;;;;;;;14.08;100.00;98565.44;5033830;28;20060;-82
2021/06/14 06:00:35;;;;;;;23.20;5.95;;;;;;;14.22;100.00;98552.53;5022324;28;20045;-82
2021/06/14 06:03:02;;;;;;;15.50;5.00;;;;;;;14.38;100.00;98550.16;5032410;28;20073;-82
2021/06/14 06:05:28;;;;;;;19.45;4.50;;;;;;;14.65;100.00;98566.25;5032742;28;20041;-83
2021/06/14 06:07:55;;;;;;;12.10;4.60;;;;;;;14.79;100.00;98559.53;5032968;28;20053;-82
2021/06/14 06:10:23;;;;;;;12.07;4.78;;;;;;;14.89;100.00;98559.22;5050822;28;20060;-82
2021/06/14 06:12:54;;;;;;;14.45;5.10;;;;;;;15.05;100.00;98559.56;5033465;28;20435;-84
2021/06/14 06:15:27;;;;;;;12.77;4.68;;;;;;;15.15;100.00;98558.44;5035066;28;20188;-82
2021/06/14 06:17:54;;;;;;;14.68;5.15;;;;;;;15.24;100.00;98554.56;5017740;28;20057;-83
2021/06/14 06:20:20;;;;;;;19.17;5.30;;;;;;;15.28;100.00;98562.94;5034299;28;20060;-82
2021/06/14 06:22:47;;;;;;;14.18;5.18;;;;;;;15.39;100.00;98554.06;5036501;28;20068;-81
2021/06/14 06:25:17;;;;;;;17.40;4.97;;;;;;;15.50;100.00;98565.50;5035436;28;20501;-84
2021/06/14 06:27:45;;;;;;;14.20;5.07;;;;;;;15.50;100.00;98543.66;5036666;28;20567;-83
2021/06/14 06:30:14;;;;;;;14.20;4.60;;;;;;;15.73;100.00;98574.25;5033679;28;20048;-83
2021/06/14 06:32:41;;;;;;;18.02;5.03;;;;;;;15.73;100.00;98564.16;5034990;28;20049;-83
2021/06/14 06:35:08;;;;;;;14.73;4.63;;;;;;;15.76;100.00;98559.97;5044526;28;20068;-80
2021/06/14 06:37:37;;;;;;;13.00;4.53;;;;;;;15.88;100.00;98565.53;5044055;28;20051;-83
2021/06/14 06:40:06;;;;;;;10.48;4.70;;;;;;;15.82;100.00;98556.72;5035575;28;20324;-83
2021/06/14 06:42:34;;;;;;;13.82;4.18;;;;;;;16.04;100.00;98572.06;5034319;28;20072;-77
2021/06/14 06:45:03;;;;;;;16.15;4.60;;;;;;;16.01;100.00;98564.53;5011080;28;20501;-76
2021/06/14 06:47:30;;;;;;;13.00;5.03;;;;;;;16.06;100.00;98558.88;5030043;28;20466;-77
2021/06/14 06:49:57;;;;;;;16.10;5.03;;;;;;;16.11;100.00;98566.91;5021554;28;20046;-77
2021/06/14 06:52:23;;;;;;;14.60;4.60;;;;;;;16.31;100.00;98565.38;5021271;28;20045;-77
2021/06/14 06:54:53;;;;;;;17.58;4.68;;;;;;;16.33;100.00;98574.03;5021823;28;20053;-76
2021/06/14 06:57:20;;;;;;;16.85;4.85;;;;;;;16.35;100.00;98564.38;5022929;28;20512;-78
2021/06/14 06:59:47;;;;;;;15.07;4.30;;;;;;;16.41;100.00;98568.53;5004322;28;20042;-79
2021/06/14 07:02:13;;;;;;;11.32;4.10;;;;;;;16.45;100.00;98568.66;5003148;28;20045;-78
2021/06/14 07:04:41;;;;;;;16.55;4.43;;;;;;;16.53;100.00;98565.13;5021222;28;20049;-78
2021/06/14 07:07:10;;;;;;;17.23;4.60;;;;;;;16.67;100.00;98557.47;5020748;28;20153;-78
2021/06/14 07:09:37;;;;;;;10.00;3.67;;;;;;;16.83;100.00;98558.47;5021956;28;20248;-77
2021/06/14 07:12:04;;;;;;;11.95;4.53;;;;;;;16.99;100.00;98561.41;5037966;28;20045;-76
2021/06/14 07:14:30;;;;;;;13.38;4.50;;;;;;;16.94;100.00;98559.69;5018190;28;20136;-76
2021/06/14 07:16:57;;;;;;;11.90;4.43;;;;;;;17.02;100.00;98555.28;5019614;28;20045;-76
2021/06/14 07:19:23;;;;;;;15.45;3.80;;;;;;;17.28;100.00;98555.88;5013822;28;20061;-75
2021/06/14 07:21:50;;;;;;;13.10;4.30;;;;;;;17.36;100.00;98550.31;5021598;28;20069;-77
2021/06/14 07:24:17;;;;;;;11.15;3.92;;;;;;;17.48;100.00;98552.28;5020353;28;20508;-78
2021/06/14 07:26:48;;;;;;;14.10;4.43;;;;;;;17.56;100.00;98553.34;5016040;28;20187;-78
2021/06/14 07:29:15;;;;;;;11.60;3.80;;;;;;;17.39;100.00;98549.63;5002591;28;20627;-78
2021/06/14 07:31:42;;;;;;;12.68;4.95;;;;;;;17.45;100.00;98545.53;5020540;28;20053;-80
2021/06/14 07:34:09;;;;;;;16.08;4.40;;;;;;;17.55;100.00;98547.06;5016896;28;20046;-80
2021/06/14 07:36:38;;;;;;;16.13;4.32;;;;;;;17.77;100.00;98548.63;5014780;28;20055;-80
2021/06/14 07:39:05;;;;;;;11.90;4.47;;;;;;;17.74;100.00;98543.81;5015494;28;20046;-79
2021/06/14 07:41:32;;;;;;;12.23;4.28;;;;;;;17.86;100.00;98541.13;5004886;28;20037;-83
2021/06/14 07:43:59;;;;;;;9.43;4.07;;;;;;;18.06;100.00;98545.72;5022676;28;20046;-78
2021/06/14 07:46:28;;;;;;;16.25;4.40;;;;;;;18.08;100.00;98551.66;5020774;28;20034;-81
2021/06/14 07:48:55;;;;;;;14.85;4.45;;;;;;;18.13;100.00;98545.94;4998903;28;20144;-80
2021/06/14 07:51:21;;;;;;;11.50;4.20;;;;;;;18.64;100.00;98534.28;5017324;28;20046;-74
2021/06/14 07:53:51;;;;;;;15.18;4.35;;;;;;;18.64;100.00;98534.28;5017360;28;20064;-82
2021/06/14 07:56:19;;;;;;;11.85;4.50;;;;;;;18.96;100.00;98527.00;5020786;28;20054;-82
2021/06/14 07:58:47;;;;;;;11.43;3.95;;;;;;;18.67;100.00;98530.06;5026940;28;20053;-81
2021/06/14 08:01:18;;;;;;;14.95;4.65;;;;;;;18.82;100.00;98537.56;5026446;28;20464;-82
2021/06/14 08:03:48;;;;;;;13.15;4.55;;;;;;;19.04;100.00;98523.34;5017635;28;20051;-82
2021/06/14 08:06:14;;;;;;;11.93;3.97;;;;;;;18.97;100.00;98525.84;5015773;28;20042;-83
2021/06/14 08:08:42;;;;;;;10.93;4.40;;;;;;;18.88;100.00;98521.66;5017327;28;20046;-81
2021/06/14 08:11:10;;;;;;;10.18;3.83;;;;;;;18.76;100.00;98525.25;5015659;28;20042;-81
2021/06/14 08:13:37;;;;;;;15.75;4.47;;;;;;;18.75;100.00;98523.63;4999332;28;20080;-83
2021/06/14 08:16:17;;;;;;;14.02;4.55;;;;;;;18.85;100.00;98516.84;5022678;28;20041;-82
2021/06/14 08:18:47;;;;;;;9.10;3.75;;;;;;;18.95;100.00;98519.13;5038028;28;20125;-82
2021/06/14 08:21:29;;;;;;;10.68;4.15;;;;;;;19.13;100.00;98517.69;5012508;28;20437;-82
2021/06/14 08:30:23;;;;;;;12.20;3.90;;;;;;;18.76;100.00;98495.06;5035519;28;20045;-83
2021/06/14 08:54:16;;;;;;;13.90;4.07;;;;;;;20.69;100.00;98478.47;4946882;29;20114;-88
2021/06/14 08:57:51;;;;;;;12.32;4.20;;;;;;;20.99;97.72;98477.53;4870915;29;20048;-84
2021/06/14 09:04:18;;;;;;;12.60;4.28;;;;;;;20.56;95.41;98455.78;4917374;29;20063;-84
2021/06/14 09:11:56;;;;;;;10.77;3.50;;;;;;;21.04;74.78;98462.69;4864574;29;20101;-86
2021/06/14 09:17:57;;;;;;;15.85;4.30;;;;;;;20.84;68.62;98466.59;5145198;22;20053;-84
2021/06/14 09:20:25;;;;;;;17.88;4.07;;;;;;;21.07;64.17;98462.78;5025245;28;20500;-82
2021/06/14 09:23:48;;;;;;;;;;;;;;;;;;;;;
2021/06/14 09:27:39;;;;;;;9.63;3.65;;;;;;;21.74;58.59;98463.22;5112800;22;20350;-83
2021/06/14 09:46:36;;;;;;;9.30;3.53;;;;;;;24.60;48.28;98425.91;4991981;28;20054;-83
2021/06/14 09:49:59;;;;;;;10.23;3.58;;;;;;;25.62;43.86;98408.84;4961686;28;20034;-81
2021/06/14 09:52:31;;;;;;;10.98;3.40;;;;;;;25.10;43.11;98426.13;5011328;28;20044;-81
2021/06/14 09:55:17;;;;;;;8.75;3.40;;;;;;;26.30;41.24;98413.16;5056225;28;20051;-84
2021/06/14 09:57:44;;;;;;;9.43;3.50;;;;;;;27.38;39.04;98399.25;5073970;28;20408;-84
2021/06/14 10:00:32;;;;;;;;;;;;;;;;;;;;;
2021/06/14 10:04:24;;;;;;;;;;;;;;;;;;;;;
2021/06/14 10:07:22;;;;;;;8.45;3.00;;;;;;;28.87;36.43;98415.41;4992339;28;20093;-76
2021/06/14 10:09:50;;;;;;;10.93;3.63;;;;;;;29.11;35.29;98421.88;5000632;28;20160;-72
2021/06/14 10:12:25;;;;;;;9.50;3.70;;;;;;;28.39;35.78;98409.97;4995886;28;20104;-71
2021/06/14 10:15:00;;;;;;;6.95;3.15;;;;;;;28.40;35.30;98411.53;5006291;28;20468;-70
2021/06/14 10:17:39;;;;;;;8.50;3.17;;;;;;;28.89;33.85;98411.00;4974686;28;20080;-71
2021/06/14 10:20:11;;;;;;;9.43;3.42;;;;;;;28.69;35.04;98409.25;5006812;28;20042;-72
2021/06/14 10:22:38;;;;;;;10.45;3.90;;;;;;;28.46;33.36;98403.53;5006999;28;20058;-72
2021/06/14 10:25:07;;;;;;;9.07;3.47;;;;;;;29.46;34.24;98415.81;5006541;28;20398;-71
2021/06/14 10:27:34;;;;;;;10.23;3.58;;;;;;;29.61;32.19;98389.28;5008271;28;20061;-83
2021/06/14 10:30:02;;;;;;;9.55;3.45;;;;;;;29.08;32.82;98404.00;5000447;28;20045;-77
2021/06/14 10:32:31;;;;;;;11.65;3.63;;;;;;;30.27;31.28;98386.59;5006626;28;20041;-74
2021/06/14 10:34:59;;;;;;;10.90;3.50;;;;;;;29.10;35.20;98398.78;5006415;28;20133;-75
2021/06/14 10:37:26;;;;;;;7.28;3.40;;;;;;;30.48;30.43;98391.78;5025331;28;20098;-84
2021/06/14 10:39:55;;;;;;;7.70;3.28;;;;;;;30.66;30.81;98374.66;4998568;28;20049;-83
2021/06/14 10:42:22;;;;;;;8.20;3.30;;;;;;;30.33;31.74;98370.13;5055758;28;20048;-86
2021/06/14 10:44:49;;;;;;;7.25;3.05;;;;;;;32.14;30.83;98364.84;5039825;28;20039;-84
2021/06/14 10:47:18;;;;;;;8.65;3.40;;;;;;;31.50;29.69;98357.25;5057784;28;20291;-84
2021/06/14 10:49:49;;;;;;;7.35;3.70;;;;;;;31.76;28.75;98361.81;5038200;28;20045;-85
2021/06/14 10:52:15;;;;;;;7.22;3.05;;;;;;;32.20;29.13;98355.47;5056049;28;20488;-85
2021/06/14 10:54:56;;;;;;;10.18;3.58;;;;;;;32.20;29.13;98355.47;5054582;28;20049;-84
2021/06/14 10:57:31;;;;;;;8.23;3.25;;;;;;;30.94;31.81;98348.13;5055429;28;20037;-84
2021/06/14 10:59:57;;;;;;;8.27;3.20;;;;;;;31.44;29.19;98345.75;5055498;28;20129;-83
2021/06/14 11:02:25;;;;;;;10.02;3.50;;;;;;;31.67;29.03;98342.81;5035826;28;20044;-84
2021/06/14 11:05:05;;;;;;;5.88;2.97;;;;;;;31.05;29.54;98340.31;5051182;28;20052;-83
2021/06/14 11:07:32;;;;;;;7.15;3.20;;;;;;;30.98;29.49;98329.25;5050056;28;20045;-84
2021/06/14 11:09:59;;;;;;;8.23;3.20;;;;;;;32.46;30.64;98325.53;5070525;28;20099;-84
2021/06/14 11:12:28;;;;;;;6.30;3.20;;;;;;;33.22;26.49;98318.06;5054910;28;20052;-84
2021/06/14 11:15:07;;;;;;;6.78;3.22;;;;;;;31.28;29.61;98310.16;5066633;28;20052;-87
2021/06/14 11:17:35;;;;;;;9.20;3.58;;;;;;;30.76;30.98;98309.34;5067407;28;20229;-82
2021/06/14 11:20:02;;;;;;;13.07;3.65;;;;;;;29.78;32.58;98304.50;5048969;28;20421;-83
2021/06/14 11:22:48;;;;;;;7.63;3.25;;;;;;;30.19;30.93;98304.13;5040977;28;20047;-82
2021/06/14 11:25:35;;;;;;;7.70;3.00;;;;;;;31.31;30.31;98294.50;5020933;28;20060;-85
2021/06/14 11:28:04;;;;;;;12.82;3.35;;;;;;;30.17;33.51;98298.19;5028859;28;20037;-87
2021/06/14 11:30:35;;;;;;;7.68;3.60;;;;;;;30.24;31.39;98287.66;5011255;28;20076;-87
2021/06/14 11:33:03;;;;;;;9.32;3.45;;;;;;;30.72;32.41;98278.66;5029139;28;20053;-85
2021/06/14 11:35:37;;;;;;;11.95;3.33;;;;;;;32.13;29.10;98259.59;5015085;28;20127;-81
2021/06/14 11:38:28;;;;;;;11.63;3.40;;;;;;;33.19;28.42;98272.03;5015594;28;20056;-90
2021/06/14 11:40:58;;;;;;;10.75;3.30;;;;;;;32.14;29.22;98259.16;5002356;28;20042;-84
2021/06/14 11:43:25;;;;;;;8.45;3.58;;;;;;;33.01;28.82;98257.75;5016396;28;20049;-86
2021/06/14 11:46:24;;;;;;;10.18;3.22;;;;;;;32.36;27.79;98273.34;5012914;28;20050;-87
2021/06/14 11:48:52;;;;;;;7.03;3.13;;;;;;;31.57;29.40;98254.28;4987448;28;20065;-75
2021/06/14 11:51:19;;;;;;;7.45;3.22;;;;;;;34.16;28.33;98268.34;5008797;28;20076;-74
2021/06/14 11:53:53;;;;;;;7.85;3.35;;;;;;;34.45;27.54;98259.63;4990506;28;20049;-76
2021/06/14 11:56:25;;;;;;;7.03;3.30;;;;;;;36.21;24.99;98260.81;5008440;28;20037;-75
2021/06/14 11:58:57;;;;;;;5.35;3.30;;;;;;;-141.50;100.00;63355.56;4991294;28;20129;-74
2021/06/14 12:01:25;;;;;;;8.63;3.33;;;;;;;36.21;24.99;98260.81;5008255;28;20053;-75
2021/06/14 12:03:56;;;;;;;7.00;3.60;;;;;;;35.93;24.67;98244.38;5008092;28;20050;-76
2021/06/14 12:06:26;;;;;;;5.43;3.50;;;;;;;34.04;26.66;98232.63;5027325;28;20065;-86
2021/06/14 12:09:21;;;;;;;6.32;3.00;;;;;;;34.82;26.54;98232.47;5012022;28;20069;-88
2021/06/14 12:12:02;;;;;;;6.95;3.40;;;;;;;35.32;26.72;98217.19;5028266;28;20053;-85
2021/06/14 12:14:29;;;;;;;7.85;3.40;;;;;;;34.35;27.52;98225.03;5010731;28;20046;-86
2021/06/14 12:17:08;;;;;;;8.35;3.40;;;;;;;35.63;26.67;98223.53;4996166;28;20061;-86
2021/06/14 12:19:37;;;;;;;5.90;3.28;;;;;;;37.29;24.20;98221.47;5028033;28;20052;-87
2021/06/14 12:22:09;;;;;;;5.88;3.15;;;;;;;37.79;22.45;98223.31;4996490;28;20054;-85
2021/06/14 12:24:37;;;;;;;8.43;3.58;;;;;;;37.91;23.25;98213.84;5029069;28;20053;-88
2021/06/14 12:27:07;;;;;;;6.85;3.15;;;;;;;38.51;22.86;98218.31;5010575;28;20132;-83
2021/06/14 12:29:39;;;;;;;;;;;;;;;36.93;23.99;98230.09;5011205;28;20034;-82
2021/06/14 12:32:30;;;;;;;8.45;2.88;;;;;;;37.20;24.96;98208.16;5024491;28;19997;-86
2021/06/14 12:35:25;;;;;;;8.93;3.20;;;;;;;37.93;22.83;98197.16;5002907;28;20052;-85
2021/06/14 12:37:54;;;;;;;9.48;3.28;;;;;;;36.31;24.54;98213.66;4994925;28;20049;-83
2021/06/14 12:40:32;;;;;;;7.90;3.45;;;;;;;33.76;27.38;98205.50;4995622;28;20417;-83
2021/06/14 12:43:12;;;;;;;9.13;3.60;;;;;;;32.81;28.02;98186.25;4993210;28;20030;-86
2021/06/14 12:45:41;;;;;;;7.25;3.10;;;;;;;35.52;26.55;98184.50;4995516;28;20053;-85
2021/06/14 12:48:18;;;;;;;13.88;3.35;;;;;;;35.14;26.13;98177.72;4996660;28;20061;-81
2021/06/14 12:50:56;;;;;;;13.02;3.40;;;;;;;36.37;25.63;98192.00;5011060;28;20045;-82
2021/06/14 12:53:30;;;;;;;6.72;3.55;;;;;;;35.90;24.87;98188.94;5000809;28;20417;-74
2021/06/14 12:56:00;;;;;;;11.30;3.50;;;;;;;36.10;24.96;98190.03;5011920;28;20038;-77
2021/06/14 12:58:35;;;;;;;8.60;3.55;;;;;;;35.67;25.95;98183.94;5011901;28;20474;-75
2021/06/14 13:01:09;;;;;;;11.30;3.30;;;;;;;36.58;26.96;98182.56;5020058;28;20042;-85
2021/06/14 13:03:39;;;;;;;13.10;3.88;;;;;;;37.94;23.51;98178.91;5002725;28;20486;-84
2021/06/14 13:06:06;;;;;;;7.85;3.30;;;;;;;38.60;22.97;98161.56;5000809;28;20144;-83
2021/06/14 13:09:13;;;;;;;9.90;3.58;;;;;;;38.27;22.12;98141.19;5003657;28;20100;-81